createdAt,value
2018-05-04T00:01:06.322Z,2.17
2018-05-04T00:03:34.730Z,2.20
2018-05-04T00:06:03.093Z,2.10
2018-05-04T00:08:31.467Z,1.83
2018-05-04T00:10:59.859Z,2.60
2018-05-04T00:13:28.218Z,2.80
2018-05-04T00:15:56.596Z,2.47
2018-05-04T00:18:24.994Z,1.70
2018-05-04T00:20:53.353Z,2.27
2018-05-04T00:23:21.762Z,2.47
2018-05-04T00:25:50.026Z,2.53
2018-05-04T00:28:18.555Z,2.27
2018-05-04T00:30:46.894Z,2.67
2018-05-04T00:33:15.199Z,2.70
2018-05-04T00:35:43.626Z,2.70
2018-05-04T00:38:12.016Z,2.10
2018-05-04T00:40:40.703Z,1.73
2018-05-04T00:43:09.074Z,2.00
2018-05-04T00:45:37.449Z,1.50
2018-05-04T00:48:05.845Z,2.47
2018-05-04T00:50:34.101Z,1.60
2018-05-04T00:53:02.622Z,2.23
2018-05-04T00:55:31.285Z,2.00
2018-05-04T00:57:59.780Z,2.57
2018-05-04T01:00:28.027Z,2.03
2018-05-04T01:02:56.405Z,2.70
2018-05-04T01:05:24.726Z,3.50
2018-05-04T01:07:53.020Z,1.83
2018-05-04T01:10:21.283Z,2.27
2018-05-04T01:12:49.622Z,1.97
2018-05-04T01:15:18.008Z,1.80
2018-05-04T01:17:46.269Z,1.40
2018-05-04T01:20:14.718Z,2.53
2018-05-04T01:22:43.175Z,2.13
2018-05-04T01:25:11.559Z,2.20
2018-05-04T01:27:40.142Z,1.40
2018-05-04T01:30:08.420Z,1.77
2018-05-04T01:32:36.663Z,1.40
2018-05-04T01:35:04.974Z,2.53
2018-05-04T01:37:33.413Z,1.40
2018-05-04T01:40:01.806Z,2.40
2018-05-04T01:42:30.101Z,1.40
2018-05-04T01:44:58.387Z,1.40
2018-05-04T01:47:26.902Z,1.70
2018-05-04T01:49:55.942Z,1.60
2018-05-04T01:52:24.238Z,1.43
2018-05-04T01:54:52.631Z,1.83
2018-05-04T01:57:21.076Z,1.50
2018-05-04T01:59:49.741Z,1.63
2018-05-04T02:02:18.135Z,1.20
2018-05-04T02:04:46.401Z,2.30
2018-05-04T02:07:14.905Z,1.57
2018-05-04T02:09:43.175Z,1.53
2018-05-04T02:12:11.444Z,1.50
2018-05-04T02:14:39.701Z,2.73
2018-05-04T02:17:08.089Z,1.67
2018-05-04T02:19:36.358Z,1.33
2018-05-04T02:22:04.617Z,1.90
2018-05-04T02:24:33.254Z,1.53
2018-05-04T02:27:01.866Z,1.93
2018-05-04T02:29:30.305Z,1.47
2018-05-04T02:31:58.939Z,1.73
2018-05-04T02:34:27.687Z,1.50
2018-05-04T02:36:56.050Z,1.87
2018-05-04T02:39:24.305Z,1.30
2018-05-04T02:41:52.822Z,1.30
2018-05-04T02:44:21.327Z,1.33
2018-05-04T02:46:49.570Z,1.67
2018-05-04T02:49:17.958Z,1.43
2018-05-04T02:51:46.247Z,1.73
2018-05-04T02:54:14.729Z,1.97
2018-05-04T02:56:43.041Z,1.93
2018-05-04T02:59:12.066Z,1.37
2018-05-04T03:01:40.317Z,1.27
2018-05-04T03:04:08.839Z,1.23
2018-05-04T03:06:37.184Z,1.70
2018-05-04T03:09:06.231Z,1.17
2018-05-04T03:11:34.477Z,1.53
2018-05-04T03:14:02.901Z,1.43
2018-05-04T03:16:31.638Z,1.40
2018-05-04T03:19:00.044Z,1.33
2018-05-04T03:21:28.358Z,1.53
2018-05-04T03:23:56.752Z,1.20
2018-05-04T03:26:26.091Z,2.03
2018-05-04T03:28:54.478Z,1.20
2018-05-04T03:31:22.747Z,1.50
2018-05-04T03:33:51.159Z,1.40
2018-05-04T03:36:19.501Z,1.03
2018-05-04T03:38:47.966Z,1.37
2018-05-04T03:41:16.368Z,1.53
2018-05-04T03:43:44.714Z,1.13
2018-05-04T03:46:13.450Z,1.10
2018-05-04T03:48:41.882Z,1.17
2018-05-04T03:51:10.159Z,1.73
2018-05-04T03:53:38.806Z,1.07
2018-05-04T03:56:07.079Z,1.13
2018-05-04T03:58:47.079Z,1.23
2018-05-04T04:01:27.087Z,1.07
2018-05-04T04:04:16.179Z,1.03
2018-05-04T04:06:44.489Z,1.20
2018-05-04T04:09:12.763Z,1.00
2018-05-04T04:11:41.171Z,1.00
2018-05-04T04:14:09.471Z,0.90
2018-05-04T04:16:38.159Z,0.97
2018-05-04T04:19:06.526Z,1.00
2018-05-04T04:21:35.237Z,1.73
2018-05-04T04:24:03.673Z,1.10
2018-05-04T04:26:31.939Z,1.00
2018-05-04T04:29:00.658Z,1.10
2018-05-04T04:31:29.117Z,1.23
2018-05-04T04:33:57.451Z,1.30
2018-05-04T04:36:25.858Z,0.83
2018-05-04T04:38:54.275Z,0.80
2018-05-04T04:41:22.554Z,1.00
2018-05-04T04:43:50.819Z,1.40
2018-05-04T04:46:19.378Z,1.67
2018-05-04T04:48:48.386Z,1.13
2018-05-04T04:51:16.806Z,1.57
2018-05-04T04:53:45.127Z,0.80
2018-05-04T04:56:13.510Z,1.23
2018-05-04T04:58:41.906Z,1.20
2018-05-04T05:01:10.226Z,1.33
2018-05-04T05:03:39.253Z,1.50
2018-05-04T05:06:07.637Z,1.17
2018-05-04T05:08:53.196Z,1.73
2018-05-04T05:11:22.292Z,1.30
2018-05-04T05:13:51.521Z,2.10
2018-05-04T05:16:19.914Z,1.40
2018-05-04T05:18:48.507Z,3.30
2018-05-04T05:21:30.920Z,10.67
2018-05-04T05:24:11.906Z,7.90
2018-05-04T05:26:49.449Z,13.03
2018-05-04T05:29:22.025Z,32.67
2018-05-04T05:31:51.638Z,87.27
2018-05-04T05:34:22.717Z,105.83
2018-05-04T05:36:51.587Z,126.10
2018-05-04T05:39:20.155Z,176.30
2018-05-04T05:41:49.409Z,168.43
2018-05-04T05:44:18.454Z,197.90
2018-05-04T05:46:46.864Z,195.53
2018-05-04T05:49:15.144Z,207.33
2018-05-04T05:51:43.520Z,216.53
2018-05-04T05:54:11.966Z,214.00
2018-05-04T05:56:40.290Z,220.93
2018-05-04T05:59:08.778Z,207.20
2018-05-04T06:01:37.058Z,231.10
2018-05-04T06:04:05.799Z,203.50
2018-05-04T06:06:34.481Z,196.87
2018-05-04T06:09:02.897Z,177.10
2018-05-04T06:11:31.229Z,204.13
2018-05-04T06:13:59.562Z,196.43
2018-05-04T06:16:28.610Z,195.80
2018-05-04T06:18:57.015Z,182.67
2018-05-04T06:21:25.370Z,179.23
2018-05-04T06:23:53.696Z,174.33
2018-05-04T06:26:22.922Z,164.13
2018-05-04T06:28:51.431Z,156.13
2018-05-04T06:31:19.745Z,166.97
2018-05-04T06:33:48.605Z,173.70
2018-05-04T06:36:16.807Z,172.23
2018-05-04T06:38:45.129Z,151.93
2018-05-04T06:41:13.659Z,176.93
2018-05-04T06:43:42.015Z,157.07
2018-05-04T06:46:10.418Z,138.47
2018-05-04T06:48:38.797Z,116.93
2018-05-04T06:51:07.151Z,74.87
2018-05-04T06:53:35.422Z,59.27
2018-05-04T06:56:03.900Z,71.93
2018-05-04T06:58:32.529Z,72.57
2018-05-04T07:01:00.975Z,86.33
2018-05-04T07:03:29.255Z,90.00
2018-05-04T07:05:57.517Z,87.23
2018-05-04T07:08:25.789Z,76.77
2018-05-04T07:10:54.162Z,80.07
2018-05-04T07:13:22.560Z,78.00
2018-05-04T07:15:50.961Z,73.97
2018-05-04T07:18:19.277Z,77.63
2018-05-04T07:20:48.642Z,76.53
2018-05-04T07:23:17.023Z,72.77
2018-05-04T07:25:46.068Z,67.43
2018-05-04T07:28:15.740Z,66.63
2018-05-04T07:30:43.993Z,63.87
2018-05-04T07:33:12.354Z,66.37
2018-05-04T07:35:40.735Z,66.47
2018-05-04T07:38:09.011Z,72.43
2018-05-04T07:40:37.281Z,65.37
2018-05-04T07:43:05.628Z,65.37
2018-05-04T07:45:33.966Z,57.67
2018-05-04T07:48:02.278Z,57.13
2018-05-04T07:50:31.329Z,61.80
2018-05-04T07:52:59.609Z,58.10
2018-05-04T07:55:28.133Z,56.50
2018-05-04T07:57:56.386Z,60.83
2018-05-04T08:00:24.656Z,66.60
2018-05-04T08:02:52.953Z,58.93
2018-05-04T08:05:21.316Z,57.23
2018-05-04T08:07:50.583Z,53.67
2018-05-04T08:10:18.982Z,62.10
2018-05-04T08:12:47.359Z,48.73
2018-05-04T08:15:15.742Z,52.37
2018-05-04T08:17:44.056Z,54.23
2018-05-04T08:20:12.488Z,55.20
2018-05-04T08:22:40.826Z,52.03
2018-05-04T08:25:09.197Z,52.47
2018-05-04T08:27:38.234Z,39.10
2018-05-04T08:30:06.878Z,38.40
2018-05-04T08:32:35.230Z,21.20
2018-05-04T08:35:03.629Z,11.60
2018-05-04T08:37:32.064Z,16.83
2018-05-04T08:40:00.331Z,19.30
2018-05-04T08:42:28.834Z,22.23
2018-05-04T08:44:57.125Z,28.33
2018-05-04T08:47:25.508Z,30.40
2018-05-04T08:49:53.951Z,34.13
2018-05-04T08:52:22.269Z,33.93
2018-05-04T08:54:50.706Z,36.87
2018-05-04T08:57:19.053Z,29.60
2018-05-04T08:59:47.280Z,32.23
2018-05-04T09:02:15.525Z,34.07
2018-05-04T09:04:43.914Z,32.17
2018-05-04T09:07:12.316Z,28.53
2018-05-04T09:09:40.673Z,31.63
2018-05-04T09:12:09.098Z,31.47
2018-05-04T09:14:37.366Z,28.93
2018-05-04T09:17:05.826Z,26.53
2018-05-04T09:19:34.135Z,22.63
2018-05-04T09:22:03.165Z,25.83
2018-05-04T09:24:31.587Z,32.20
2018-05-04T09:26:59.871Z,31.07
2018-05-04T09:29:28.286Z,23.83
2018-05-04T09:31:57.317Z,29.47
2018-05-04T09:34:25.652Z,26.80
2018-05-04T09:36:54.118Z,25.73
2018-05-04T09:39:22.399Z,23.83
2018-05-04T09:41:51.129Z,28.40
2018-05-04T09:44:19.548Z,21.20
2018-05-04T09:46:47.838Z,23.70
2018-05-04T09:49:16.910Z,24.57
2018-05-04T09:51:45.184Z,19.33
2018-05-04T09:54:13.910Z,17.93
2018-05-04T09:56:42.961Z,17.47
2018-05-04T09:59:11.243Z,16.73
2018-05-04T10:01:39.646Z,17.70
2018-05-04T10:04:08.040Z,19.70
2018-05-04T10:06:37.083Z,17.13
2018-05-04T10:09:05.383Z,18.47
2018-05-04T10:11:33.634Z,15.13
2018-05-04T10:14:02.158Z,19.83
2018-05-04T10:16:30.894Z,20.20
2018-05-04T10:18:59.294Z,16.50
2018-05-04T10:21:27.617Z,18.40
2018-05-04T10:23:56.077Z,40.67
2018-05-04T10:26:24.417Z,29.80
2018-05-04T10:28:52.717Z,36.43
2018-05-04T10:31:21.189Z,42.80
2018-05-04T10:33:49.898Z,31.30
2018-05-04T10:36:18.258Z,25.17
2018-05-04T10:38:46.618Z,24.90
2018-05-04T10:41:14.813Z,20.80
2018-05-04T10:43:43.374Z,23.20
2018-05-04T10:46:11.775Z,22.00
2018-05-04T10:48:40.063Z,20.37
2018-05-04T10:51:08.543Z,16.10
2018-05-04T10:53:36.850Z,18.37
2018-05-04T10:56:05.294Z,14.47
2018-05-04T10:58:33.589Z,16.37
2018-05-04T11:01:02.330Z,17.50
2018-05-04T11:03:30.600Z,16.17
2018-05-04T11:05:59.050Z,12.80
2018-05-04T11:08:27.493Z,13.37
2018-05-04T11:10:55.791Z,15.23
2018-05-04T11:13:24.491Z,13.73
2018-05-04T11:15:53.518Z,12.23
2018-05-04T11:18:21.793Z,12.87
2018-05-04T11:20:50.062Z,12.17
2018-05-04T11:23:18.341Z,13.70
2018-05-04T11:25:47.896Z,11.33
2018-05-04T11:28:16.299Z,11.53
2018-05-04T11:30:44.727Z,10.03
2018-05-04T11:33:13.233Z,11.27
2018-05-04T11:35:41.513Z,9.17
2018-05-04T11:38:09.890Z,10.37
2018-05-04T11:40:38.185Z,7.40
2018-05-04T11:43:06.637Z,8.07
2018-05-04T11:45:34.902Z,10.60
2018-05-04T11:48:03.187Z,6.73
2018-05-04T11:50:33.002Z,7.37
2018-05-04T11:53:01.368Z,7.90
2018-05-04T11:55:29.710Z,8.30
2018-05-04T11:57:57.961Z,9.40
2018-05-04T12:00:26.474Z,11.77
2018-05-04T12:02:54.882Z,10.63
2018-05-04T12:05:23.511Z,11.33
2018-05-04T12:07:52.267Z,10.13
2018-05-04T12:10:20.625Z,9.27
2018-05-04T12:12:48.895Z,11.87
2018-05-04T12:15:17.158Z,9.93
2018-05-04T12:17:46.338Z,9.40
2018-05-04T12:20:15.369Z,11.63
2018-05-04T12:22:43.773Z,9.63
2018-05-04T12:25:12.086Z,12.70
2018-05-04T12:27:41.151Z,11.40
2018-05-04T12:30:09.553Z,8.90
2018-05-04T12:32:37.902Z,8.00
2018-05-04T12:35:06.243Z,10.00
2018-05-04T12:37:34.899Z,13.57
2018-05-04T12:40:03.170Z,9.40
2018-05-04T12:42:31.710Z,20.57
2018-05-04T12:45:00.108Z,9.87
2018-05-04T12:47:28.463Z,13.40
2018-05-04T12:49:56.797Z,10.40
2018-05-04T12:52:25.842Z,10.67
2018-05-04T12:54:54.251Z,12.40
2018-05-04T12:57:22.582Z,13.63
2018-05-04T12:59:50.951Z,8.10
2018-05-04T13:02:19.359Z,12.10
2018-05-04T13:04:47.974Z,8.63
2018-05-04T13:07:16.451Z,8.17
2018-05-04T13:09:44.798Z,8.77
2018-05-04T13:12:13.498Z,10.00
2018-05-04T13:14:42.187Z,9.23
2018-05-04T13:17:10.592Z,6.53
2018-05-04T13:19:38.883Z,8.57
2018-05-04T13:22:07.289Z,5.40
2018-05-04T13:24:35.686Z,7.37
2018-05-04T13:27:03.979Z,9.70
2018-05-04T13:29:32.241Z,11.57
2018-05-04T13:32:00.541Z,5.43
2018-05-04T13:34:28.898Z,6.10
2018-05-04T13:36:57.517Z,6.80
2018-05-04T13:39:25.872Z,5.17
2018-05-04T13:41:54.359Z,4.07
2018-05-04T13:44:22.728Z,9.03
2018-05-04T13:46:51.110Z,7.33
2018-05-04T13:49:19.512Z,7.47
2018-05-04T13:51:47.858Z,6.43
2018-05-04T13:54:16.494Z,7.57
2018-05-04T13:56:44.753Z,5.80
2018-05-04T13:59:13.022Z,3.87
2018-05-04T14:01:41.394Z,12.23
2018-05-04T14:04:09.670Z,9.87
2018-05-04T14:06:38.149Z,10.87
2018-05-04T14:09:06.459Z,8.37
2018-05-04T14:11:34.892Z,17.03
2018-05-04T14:14:03.289Z,7.17
2018-05-04T14:16:31.589Z,13.97
2018-05-04T14:19:00.078Z,19.63
2018-05-04T14:21:28.317Z,9.90
2018-05-04T14:23:56.798Z,8.40
2018-05-04T14:26:25.167Z,6.03
2018-05-04T14:28:53.573Z,11.77
2018-05-04T14:31:21.833Z,9.57
2018-05-04T14:33:50.305Z,10.57
2018-05-04T14:36:18.937Z,11.43
2018-05-04T14:38:47.410Z,10.87
2018-05-04T14:41:16.668Z,6.13
2018-05-04T14:43:45.111Z,13.53
2018-05-04T14:46:13.426Z,7.67
2018-05-04T14:48:41.830Z,10.40
2018-05-04T14:51:10.523Z,7.50
2018-05-04T14:53:38.868Z,10.13
2018-05-04T14:56:07.139Z,5.53
2018-05-04T14:58:35.653Z,7.97
2018-05-04T15:01:04.027Z,8.20
2018-05-04T15:03:32.639Z,8.03
2018-05-04T15:06:01.085Z,7.63
2018-05-04T15:08:29.394Z,5.77
2018-05-04T15:10:57.867Z,9.77
2018-05-04T15:13:26.121Z,5.83
2018-05-04T15:15:54.469Z,10.57
2018-05-04T15:18:22.663Z,4.13
2018-05-04T15:20:51.342Z,10.17
2018-05-04T15:23:19.739Z,11.93
2018-05-04T15:25:48.106Z,10.47
2018-05-04T15:28:16.492Z,8.93
2018-05-04T15:30:44.759Z,4.33
2018-05-04T15:33:13.458Z,8.13
2018-05-04T15:35:41.733Z,8.70
2018-05-04T15:38:10.306Z,8.13
2018-05-04T15:40:38.994Z,14.20
2018-05-04T15:43:07.350Z,7.03
2018-05-04T15:45:35.753Z,12.37
2018-05-04T15:48:09.865Z,9.07
2018-05-04T15:50:43.829Z,16.03
2018-05-04T15:53:12.866Z,10.73
2018-05-04T15:55:41.578Z,13.17
2018-05-04T15:58:09.955Z,14.67
2018-05-04T16:00:38.322Z,14.20
2018-05-04T16:03:06.583Z,6.93
2018-05-04T16:05:35.077Z,9.03
2018-05-04T16:08:03.480Z,6.77
2018-05-04T16:10:31.742Z,9.17
2018-05-04T16:13:00.155Z,8.13
2018-05-04T16:15:28.602Z,11.77
2018-05-04T16:17:56.905Z,7.87
2018-05-04T16:20:25.346Z,11.33
2018-05-04T16:22:53.621Z,6.47
2018-05-04T16:25:22.129Z,12.63
2018-05-04T16:27:50.429Z,11.47
2018-05-04T16:30:19.585Z,10.97
2018-05-04T16:32:47.871Z,12.23
2018-05-04T16:35:16.272Z,7.00
2018-05-04T16:37:46.294Z,8.80
2018-05-04T16:40:31.935Z,7.57
2018-05-04T16:43:04.522Z,10.97
2018-05-04T16:45:36.294Z,5.27
2018-05-04T16:48:13.465Z,12.47
2018-05-04T16:50:42.145Z,84.63
2018-05-04T16:53:11.681Z,138.67
2018-05-04T16:55:40.615Z,192.83
2018-05-04T16:58:08.887Z,189.70
2018-05-04T17:00:47.192Z,171.07
2018-05-04T17:03:37.504Z,187.83
2018-05-04T17:06:07.437Z,195.63
2018-05-04T17:08:50.114Z,191.67
2018-05-04T17:11:18.394Z,170.50
2018-05-04T17:13:46.741Z,171.83
2018-05-04T17:16:15.058Z,169.40
2018-05-04T17:18:43.477Z,176.43
2018-05-04T17:21:11.891Z,164.23
2018-05-04T17:23:40.194Z,156.57
2018-05-04T17:26:08.642Z,148.83
2018-05-04T17:28:37.014Z,168.57
2018-05-04T17:31:05.443Z,156.57
2018-05-04T17:33:33.721Z,153.93
2018-05-04T17:36:02.098Z,135.57
2018-05-04T17:38:30.443Z,160.43
2018-05-04T17:40:58.858Z,146.63
2018-05-04T17:43:27.533Z,150.27
2018-05-04T17:45:56.214Z,139.33
2018-05-04T17:51:09.913Z,132.60
2018-05-04T17:53:38.542Z,137.53
2018-05-04T17:56:07.226Z,126.50
2018-05-04T17:58:35.927Z,127.23
2018-05-04T18:01:04.985Z,121.87
2018-05-04T18:03:33.261Z,126.00
2018-05-04T18:06:01.553Z,130.03
2018-05-04T18:08:30.039Z,124.27
2018-05-04T18:10:58.484Z,117.80
2018-05-04T18:13:26.912Z,94.27
2018-05-04T18:15:55.241Z,106.13
2018-05-04T18:18:23.618Z,103.23
2018-05-04T18:20:51.954Z,97.30
2018-05-04T18:23:21.010Z,92.97
2018-05-04T18:25:49.284Z,85.73
2018-05-04T18:28:18.439Z,87.57
2018-05-04T18:30:46.973Z,85.77
2018-05-04T18:33:16.205Z,75.67
2018-05-04T18:35:44.518Z,77.90
2018-05-04T18:38:12.815Z,67.77
2018-05-04T18:40:41.185Z,60.83
2018-05-04T18:43:09.557Z,68.90
2018-05-04T18:45:37.873Z,74.03
2018-05-04T18:48:06.582Z,57.77
2018-05-04T18:50:35.922Z,51.50
2018-05-04T18:53:04.351Z,57.90
2018-05-04T18:55:32.638Z,56.87
2018-05-04T18:58:01.015Z,52.30
2018-05-04T19:00:30.060Z,52.63
2018-05-04T19:03:04.111Z,46.73
2018-05-04T19:05:32.629Z,45.93
2018-05-04T19:08:01.089Z,45.27
2018-05-04T19:10:29.369Z,43.27
2018-05-04T19:12:57.747Z,43.77
2018-05-04T19:15:26.206Z,42.40
2018-05-04T19:17:54.550Z,40.53
2018-05-04T19:20:22.933Z,41.27
2018-05-04T19:22:51.264Z,36.10
2018-05-04T19:25:20.302Z,32.57
2018-05-04T19:27:48.581Z,35.80
2018-05-04T19:30:16.957Z,37.43
2018-05-04T19:32:46.054Z,32.80
2018-05-04T19:35:14.421Z,27.47
2018-05-04T19:37:42.832Z,30.17
2018-05-04T19:40:11.151Z,28.33
2018-05-04T19:42:39.623Z,26.77
2018-05-04T19:45:07.892Z,28.30
2018-05-04T19:47:36.952Z,27.03
2018-05-04T19:50:05.323Z,30.10
2018-05-04T19:52:33.603Z,25.50
2018-05-04T19:55:01.871Z,25.43
2018-05-04T19:57:30.237Z,24.27
2018-05-04T19:59:58.521Z,21.83
2018-05-04T20:02:26.905Z,26.13
2018-05-04T20:04:55.301Z,20.90
2018-05-04T20:07:23.578Z,21.87
2018-05-04T20:09:51.872Z,22.43
2018-05-04T20:12:20.361Z,19.80
2018-05-04T20:14:48.676Z,21.73
2018-05-04T20:17:16.951Z,18.30
2018-05-04T20:19:45.254Z,20.20
2018-05-04T20:22:13.921Z,19.07
2018-05-04T20:24:42.189Z,18.43
2018-05-04T20:27:10.471Z,17.53
2018-05-04T20:29:38.785Z,27.50
2018-05-04T20:32:07.181Z,15.57
2018-05-04T20:34:35.482Z,18.23
2018-05-04T20:37:03.878Z,20.07
2018-05-04T20:39:32.153Z,19.13
2018-05-04T20:42:00.658Z,14.90
2018-05-04T20:44:29.075Z,16.50
2018-05-04T20:46:57.429Z,17.77
2018-05-04T20:49:25.829Z,15.17
2018-05-04T20:51:54.199Z,16.93
2018-05-04T20:54:22.567Z,16.20
2018-05-04T20:56:50.937Z,11.33
2018-05-04T20:59:19.223Z,16.13
2018-05-04T21:01:47.668Z,12.40
2018-05-04T21:04:16.713Z,13.13
2018-05-04T21:06:45.019Z,13.77
2018-05-04T21:09:14.061Z,12.50
2018-05-04T21:11:42.463Z,11.73
2018-05-04T21:14:10.728Z,12.67
2018-05-04T21:16:38.993Z,11.33
2018-05-04T21:19:07.278Z,13.23
2018-05-04T21:21:35.671Z,11.27
2018-05-04T21:24:03.975Z,11.67
2018-05-04T21:26:32.425Z,11.90
2018-05-04T21:29:00.731Z,12.87
2018-05-04T21:31:29.001Z,9.97
2018-05-04T21:33:57.563Z,10.00
2018-05-04T21:36:25.984Z,7.97
2018-05-04T21:38:54.284Z,13.37
2018-05-04T21:41:22.558Z,10.87
2018-05-04T21:43:50.826Z,10.53
2018-05-04T21:46:19.094Z,9.33
2018-05-04T21:48:48.452Z,7.43
2018-05-04T21:51:16.826Z,8.90
2018-05-04T21:53:45.094Z,10.30
2018-05-04T21:56:13.523Z,7.20
2018-05-04T21:58:42.557Z,9.03
2018-05-04T22:01:10.947Z,7.03
2018-05-04T22:03:39.313Z,6.67
2018-05-04T22:06:07.799Z,10.87
2018-05-04T22:08:36.107Z,7.63
2018-05-04T22:11:04.374Z,8.43
2018-05-04T22:13:32.890Z,5.57
2018-05-04T22:16:01.235Z,7.30
2018-05-04T22:18:29.641Z,6.33
2018-05-04T22:20:57.922Z,5.87
2018-05-04T22:23:26.304Z,6.90
2018-05-04T22:25:54.731Z,6.10
2018-05-04T22:28:23.051Z,4.43
2018-05-04T22:30:51.314Z,4.63
2018-05-04T22:33:19.839Z,5.73
2018-05-04T22:35:48.979Z,5.93
2018-05-04T22:38:17.261Z,6.13
2018-05-04T22:40:45.517Z,5.33
2018-05-04T22:43:13.802Z,4.90
2018-05-04T22:45:42.342Z,5.63
2018-05-04T22:48:10.775Z,4.30
2018-05-04T22:50:39.038Z,4.53
2018-05-04T22:53:07.517Z,4.77
2018-05-04T22:55:35.894Z,5.23
2018-05-04T22:58:04.287Z,4.70
2018-05-04T23:00:32.653Z,4.73
2018-05-04T23:03:00.937Z,4.50
2018-05-04T23:05:29.398Z,5.63
2018-05-04T23:07:58.040Z,4.53
2018-05-04T23:10:26.481Z,4.43
2018-05-04T23:12:54.751Z,3.40
2018-05-04T23:15:23.025Z,4.77
2018-05-04T23:17:51.306Z,4.07
2018-05-04T23:20:19.707Z,5.37
2018-05-04T23:22:48.047Z,5.47
2018-05-04T23:25:16.462Z,6.60
2018-05-04T23:27:44.814Z,5.40
2018-05-04T23:30:12.993Z,4.10
2018-05-04T23:32:41.285Z,4.53
2018-05-04T23:35:09.650Z,2.83
2018-05-04T23:37:38.067Z,3.97
2018-05-04T23:40:06.434Z,4.27
2018-05-04T23:42:34.811Z,4.37
2018-05-04T23:45:03.181Z,3.20
2018-05-04T23:47:32.304Z,3.57
2018-05-04T23:50:00.581Z,3.47
2018-05-04T23:52:28.951Z,4.17
2018-05-04T23:54:57.242Z,4.23
2018-05-04T23:57:26.021Z,3.30
2018-05-04T23:59:54.367Z,3.03
